This is the latest recevied weather packets stored in our database for station/object KE8DDT-7. If no packets are shown the sender has not sent any weather packets the latest 10 day(s).
| Time | Temp. | Humidity | Pressure | Rain* | Wind** | Luminosity | Snow |
|---|---|---|---|---|---|---|---|
| 1777941145 | 15.56° C | 82% | 991.6 hPa | 1.02 mm | - | 0 W/m² | - |
| 1777940846 | 15.56° C | 82% | 991.6 hPa | 1.02 mm | - | 5 W/m² | - |
| 1777940546 | 15.56° C | 82% | 991.6 hPa | 1.02 mm | - | 9 W/m² | - |
| 1777940245 | 15.56° C | 82% | 991.6 hPa | 1.02 mm | - | 16 W/m² | - |
| 1777939945 | 15.56° C | 82% | 991.5 hPa | 1.02 mm | - | 37 W/m² | - |
| 1777939646 | 16.11° C | 82% | 991.5 hPa | 1.02 mm | - | 44 W/m² | - |
| 1777939347 | 16.11° C | 81% | 991.5 hPa | 1.02 mm | - | 33 W/m² | - |
| 1777939046 | 16.11° C | 81% | 991.5 hPa | 1.02 mm | - | 51 W/m² | - |
| 1777938746 | 16.11° C | 81% | 991.5 hPa | 1.02 mm | - | 51 W/m² | - |
| 1777938446 | 16.11° C | 81% | 991.7 hPa | 1.02 mm | - | 42 W/m² | - |
| 1777938145 | 16.11° C | 80% | 991.7 hPa | 1.02 mm | - | 76 W/m² | - |
| 1777937845 | 16.67° C | 77% | 991.8 hPa | 1.02 mm | - | 60 W/m² | - |
| 1777937546 | 17.78° C | 72% | 992.2 hPa | 0 mm | - | 21 W/m² | - |
| 1777937246 | 17.78° C | 70% | 992.2 hPa | 0 mm | - | 37 W/m² | - |
| 1777936946 | 18.33° C | 69% | 992.1 hPa | 0 mm | - | 49 W/m² | - |
| 1777936646 | 18.89° C | 67% | 991.9 hPa | 0 mm | - | 81 W/m² | - |
| 1777936346 | 18.89° C | 64% | 991.8 hPa | 0 mm | - | 144 W/m² | - |
| 1777936045 | 20° C | 60% | 991.9 hPa | 0 mm | - | 111 W/m² | - |
| 1777935745 | 21.67° C | 55% | 991.6 hPa | 0 mm | - | 139 W/m² | - |
| 1777935445 | 22.78° C | 49% | 991.6 hPa | 0 mm | - | 134 W/m² | - |
| 1777935145 | 23.33° C | 49% | 991.2 hPa | 0 mm | - | 69 W/m² | - |
| 1777934846 | 23.33° C | 48% | 991.1 hPa | 0 mm | - | 95 W/m² | - |
| 1777934546 | 23.89° C | 48% | 991.2 hPa | 0 mm | - | 90 W/m² | - |
| 1777934246 | 23.89° C | 46% | 991.2 hPa | 0 mm | - | 97 W/m² | - |
| 1777933946 | 23.33° C | 47% | 991.1 hPa | 0 mm | - | 128 W/m² | - |
* Rain latest hour (hover to see other rain measurements)
** Current wind speed in m/s (hover to see current wind gust speed)